Crescent City, FL (32112)

8:00 AM EDT on October 21, 2017 (GMT -0400)
PCEM Middleton Burney WeatherSTEM | | Change Station
Active Advisory: Coastal Flood Warning

Elev 68 ft 29.44 °N, 81.52 °W | Updated 5 minutes ago

Partly Cloudy
Partly Cloudy
70.6 °F
Feels Like 70.6 °F
N
0.0
Wind Variable Wind from NE

Today
High -- | Low -- °F
--% Chance of Precip.
Yesterday
High -- | Low -- °F
Precip. -- in
Pressure 30.13 in
Visibility 7.0 miles
Clouds Clear
Dew Point 68 °F
Humidity 92%
Rainfall 0.00 in
Snow Depth Not available.
7:31 AM 6:49 PM
Waxing Crescent, 3% visible
METAR KOMN 211050Z 06010KT 7SM SKC 25/18 A3013 RMK FIRST
Pressure 30.13 in
Visibility 7.0 miles
Clouds Clear
Dew Point 68 °F
Humidity 92%
Rainfall 0.00 in
Snow Depth Not available.
7:31 AM 6:49 PM
Waxing Crescent, 3% visible
METAR KOMN 211050Z 06010KT 7SM SKC 25/18 A3013 RMK FIRST

Get Your Daily Forecast Email!

Thanks for signing up!

Be on the lookout for a verification email in your inbox.

You'll start receiving severe weather alerts in your inbox..

×

10-Day Weather Forecast

Almanac

Astronomy

Oct. 21, 2017 Rise Set
Actual Time
Civil Twilight
Nautical Twilight
Astronomical Twilight
Moon
Length of Visible Light
Length of Day
Tomorrow will be .
, % of the Moon is Illuminated

Today's Extremes

State Highs State Lows

Community

WunderPhotos

Category 6

Welcome to Category 6. This is the collective home for Weather Underground's featured writeups by Dr. Jeff Masters (right), Bob Henson (left), Chris Burt, and other regular contributors.

Nearby

Air Quality

  Air Quality AQ Index Pollutant
Not available.

Snow Depth

Station Depth Elevation

Earthquake Activity

City Distance Mag. Time & Date
Minimum magnitude displayed is 2.5.

Coastal Water Temperatures

Place Temperature

Stations

Nearby Weather Stations

Station Location Temp. Windchill Dew Point Humidity Wind Precip. Elev Updated Type
                   

Watches & Warnings

Coastal Flood Warning
Issued: 3:34 AM EDT Oct. 21, 2017 – National Weather Service

... Coastal Flood Warning now in effect until 6 am EDT Monday...

* coastal flooding... moderate tidal flooding is expected around
times of high tide within the St. Johns River basin and its
tributaries.

* Timing... elevated water levels on the St Johns River will
continue through the weekend.

* Impacts... river and creek flooding around the times of high
tide will cause minor flooding of mainly Parks, campgrounds,
docks and boat ramps.

Precautionary/preparedness actions...

A coastal Flood Warning means that flooding is occurring or
imminent. Coastal residents in the warned area should be alert
for rising water, and take appropriate action to protect life and
property.